»·PEaware :: N5435W L88-KSBP

N5435W :: L88-KSBP

FLIGHT INFORMATION

Flight Status: Arrived
Operator: Privately registered:
United States
More flights under this callsign
Pilot: Anonymous 23155 (23155)
Aircraft: PIPER PA-28R-201 ARROW
(P28R)
More flights by this aircraft type
Origin: L88 New Cuyama
United States
Destination: KSBP San Luis Co Regl
United States
More flights between these airports :: More routes between these airports
Route: VFR NAVIGATION VIA DEAD RECKONING AND GPS AS BACKUP DIRECT FROM L88 TO KSBP
File this flight plan on PilotEdge
Remarks: I'm a new PPL student and new to Pilotedge. Sorry in advance.
Altitude:
(Current/Filed)
2,500ft
Speed:
(Current/Filed)
115kts
Departed: 25-Jan-19 09:25 PM
Arrived: 25-Jan-19 10:14 PM
Distance/Time
Traveled:
50nm/0:49
Distance/Time
To Go:
Arrived

Flight Plot

Page will automatically refresh every two minutes.

Flight plan parsing failed; only flown route is shown


Map Options




Map Legend


Flown Route
Filed Route
Departure Airport
Arrival Airport
Navaid (VOR, NDB)
Fix

Horizontal Profiles

Position Reports

Time Latitude Longitude Heading Altitude Ground
Speed
25-Jan-19 21:18 34.942860 -119.690283 204 2156ft 0kts
25-Jan-19 21:19 34.942860 -119.690283 204 2156ft 0kts
25-Jan-19 21:20 34.942860 -119.690283 204 2156ft 0kts
25-Jan-19 21:21 34.942860 -119.690283 204 2156ft 0kts
25-Jan-19 21:22 34.942750 -119.690443 280 2156ft 14kts
25-Jan-19 21:23 34.942528 -119.690951 115 2155ft 0kts
25-Jan-19 21:24 34.942470 -119.691322 203 2154ft 4kts
25-Jan-19 21:25 34.935708 -119.672341 112 2841ft 76kts
25-Jan-19 21:26 34.937503 -119.647136 13 3515ft 111kts
25-Jan-19 21:27 34.952547 -119.679567 315 3157ft 99kts
25-Jan-19 21:28 34.964177 -119.696631 251 2730ft 82kts
25-Jan-19 21:29 34.946799 -119.698553 139 2482ft 71kts
25-Jan-19 21:30 34.937274 -119.679660 120 2375ft 72kts
25-Jan-19 21:31 34.928019 -119.658078 111 3066ft 76kts
25-Jan-19 21:31 34.912963 -119.660940 242 3278ft 79kts
25-Jan-19 21:32 34.923956 -119.687533 307 3125ft 100kts
25-Jan-19 21:34 34.947979 -119.712581 313 2636ft 91kts
25-Jan-19 21:35 34.946817 -119.701508 130 2527ft 85kts
25-Jan-19 21:36 34.938646 -119.682379 117 2190ft 36kts
25-Jan-19 21:36 34.937720 -119.680081 280 2199ft 4kts
25-Jan-19 21:37 34.939120 -119.683556 294 2186ft 70kts
25-Jan-19 21:38 34.951625 -119.697930 326 2809ft 68kts
25-Jan-19 21:39 34.962909 -119.718068 296 3431ft 74kts
25-Jan-19 21:40 34.971778 -119.741139 296 4074ft 75kts
25-Jan-19 21:41 34.981280 -119.765638 293 4526ft 83kts
25-Jan-19 21:42 34.992647 -119.795093 297 4501ft 103kts
25-Jan-19 21:43 35.004914 -119.825950 296 4459ft 100kts
25-Jan-19 21:44 35.017167 -119.856729 295 4409ft 100kts
25-Jan-19 21:45 35.029242 -119.887714 295 4320ft 101kts
25-Jan-19 21:46 35.041196 -119.918555 294 4262ft 100kts
25-Jan-19 21:47 35.056525 -119.946881 285 3800ft 108kts
25-Jan-19 21:48 35.064765 -119.979826 281 3743ft 100kts
25-Jan-19 21:49 35.076530 -120.010322 299 3710ft 100kts
25-Jan-19 21:50 35.089537 -120.040195 299 3689ft 100kts
25-Jan-19 21:51 35.096887 -120.072455 269 3568ft 105kts
25-Jan-19 21:52 35.097855 -120.107562 269 3391ft 105kts
25-Jan-19 21:53 35.101297 -120.141313 275 3435ft 95kts
25-Jan-19 21:54 35.102249 -120.174100 273 3508ft 99kts
25-Jan-19 21:55 35.107232 -120.208717 294 3200ft 107kts
25-Jan-19 21:56 35.117016 -120.241247 286 3031ft 110kts
25-Jan-19 21:57 35.125180 -120.276905 297 2475ft 117kts
25-Jan-19 21:58 35.134717 -120.311373 289 2203ft 110kts
25-Jan-19 21:59 35.143838 -120.342179 287 2472ft 93kts
25-Jan-19 22:00 35.151927 -120.371789 290 2791ft 90kts
25-Jan-19 22:01 35.157921 -120.402645 280 2918ft 102kts
25-Jan-19 22:02 35.163145 -120.435852 281 2969ft 98kts
25-Jan-19 22:03 35.157219 -120.452732 127 2867ft 100kts
25-Jan-19 22:04 35.162419 -120.445686 241 2632ft 102kts
25-Jan-19 22:05 35.159644 -120.431953 335 2817ft 94kts
25-Jan-19 22:06 35.166072 -120.463858 280 2793ft 97kts
25-Jan-19 22:07 35.170408 -120.498873 272 2452ft 107kts
25-Jan-19 22:08 35.178881 -120.533172 296 1679ft 112kts
25-Jan-19 22:09 35.195119 -120.563159 309 1287ft 101kts
25-Jan-19 22:10 35.211102 -120.591914 298 988ft 102kts
25-Jan-19 22:11 35.226681 -120.621759 303 590ft 93kts
25-Jan-19 22:12 35.237692 -120.641623 308 215ft 42kts
25-Jan-19 22:13 35.239614 -120.644192 22 215ft 0kts
25-Jan-19 22:14 35.239615 -120.644191 21 215ft 0kts
25-Jan-19 22:15 35.239618 -120.644190 21 215ft 0kts

Navigation Log

Ident Type
Flight plan parsing failed, navigation log unavailable